Time;durP1;ratioP1;P1;durP2;ratioP2;P2;SDS_P1;SDS_P2;PMS_P1;PMS_P2;Temp;Humidity;BMP_temperature;BMP_pressure;BME280_temperature;BME280_humidity;BME280_pressure;Samples;Min_cycle;Max_cycle;Signal;HPM_P1;HPM_P2
2021/08/19 00:02:15;;;;;;;17.87;12.68;;;;;;;17.23;100.00;100079.61;1769858;79;21134;-42
2021/08/19 00:04:42;;;;;;;22.80;13.10;;;;;;;17.22;100.00;100071.38;1738987;82;21066;-42
2021/08/19 00:07:10;;;;;;;26.77;12.00;;;;;;;17.21;100.00;100068.39;1727677;82;21164;-42
2021/08/19 00:09:37;;;;;;;15.95;12.30;;;;;;;17.22;100.00;100070.55;1735764;82;20984;-41
2021/08/19 00:12:08;;;;;;;16.17;11.83;;;;;;;17.22;100.00;100075.30;1739192;82;20924;-41
2021/08/19 00:14:36;;;;;;;15.72;11.28;;;;;;;17.21;100.00;100081.94;1737341;82;21065;-43
2021/08/19 00:17:04;;;;;;;15.32;11.03;;;;;;;17.21;100.00;100080.63;1709801;83;20999;-41
2021/08/19 00:19:32;;;;;;;15.28;10.55;;;;;;;17.21;100.00;100085.86;1703122;82;21742;-43
2021/08/19 00:22:01;;;;;;;16.07;10.58;;;;;;;17.22;100.00;100092.78;1706033;82;21023;-42
2021/08/19 00:24:28;;;;;;;19.85;11.03;;;;;;;17.24;100.00;100091.76;1727097;82;20964;-41
2021/08/19 00:26:56;;;;;;;14.70;10.23;;;;;;;17.27;100.00;100085.53;1712090;82;21079;-42
2021/08/19 00:29:22;;;;;;;13.32;10.48;;;;;;;17.27;100.00;100078.13;1753881;80;21003;-42
2021/08/19 00:31:49;;;;;;;14.35;9.98;;;;;;;17.26;100.00;100081.23;1739206;82;21032;-43
2021/08/19 00:34:16;;;;;;;14.90;9.88;;;;;;;17.23;100.00;100077.47;1758618;81;20895;-42
2021/08/19 00:36:43;;;;;;;16.02;9.43;;;;;;;17.21;100.00;100074.09;1714622;82;20952;-42
2021/08/19 00:39:10;;;;;;;17.12;9.73;;;;;;;17.19;100.00;100070.23;1714568;82;21886;-40
2021/08/19 00:41:37;;;;;;;13.70;10.18;;;;;;;17.20;100.00;100066.70;1739105;82;21536;-39
2021/08/19 00:44:07;;;;;;;14.85;9.03;;;;;;;17.20;100.00;100066.70;1757904;81;21530;-40
2021/08/19 00:46:36;;;;;;;14.25;9.63;;;;;;;17.20;100.00;100071.92;1738929;82;20991;-39
2021/08/19 00:49:12;;;;;;;12.30;9.53;;;;;;;17.21;100.00;100072.78;1738450;82;20952;-41
2021/08/19 00:51:43;;;;;;;13.85;9.20;;;;;;;17.20;100.00;100065.87;1739297;82;21026;-42
2021/08/19 00:54:12;;;;;;;13.78;9.38;;;;;;;17.20;100.00;100064.56;1738807;82;21050;-40
2021/08/19 00:56:39;;;;;;;13.35;8.65;;;;;;;17.20;100.00;100075.84;1739289;82;21269;-40
2021/08/19 00:59:10;;;;;;;21.95;10.05;;;;;;;17.19;100.00;100079.39;1709008;82;20999;-42
2021/08/19 01:01:38;;;;;;;11.80;8.58;;;;;;;17.20;100.00;100081.56;1674961;84;21437;-40
2021/08/19 01:04:07;;;;;;;14.15;9.48;;;;;;;17.17;100.00;100080.38;1709805;81;21507;-40
2021/08/19 01:06:35;;;;;;;17.65;8.63;;;;;;;17.15;100.00;100081.79;1710828;83;21019;-42
2021/08/19 01:09:05;;;;;;;11.10;8.60;;;;;;;17.15;100.00;100084.85;1724155;83;20931;-40
2021/08/19 01:11:38;;;;;;;15.50;8.80;;;;;;;17.12;100.00;100080.64;1722096;81;20977;-41
2021/08/19 01:14:07;;;;;;;17.95;9.55;;;;;;;17.09;100.00;100078.19;1726667;83;20934;-40
2021/08/19 01:16:33;;;;;;;13.20;8.30;;;;;;;17.06;100.00;100081.80;1725001;83;21031;-40
2021/08/19 01:19:02;;;;;;;11.60;9.28;;;;;;;17.06;100.00;100088.81;1755591;81;20982;-42
2021/08/19 01:21:30;;;;;;;9.33;8.38;;;;;;;17.05;100.00;100084.48;1756313;80;20966;-42
2021/08/19 01:23:58;;;;;;;11.93;7.75;;;;;;;17.04;100.00;100083.65;1728345;82;20991;-41
2021/08/19 01:26:25;;;;;;;11.35;8.35;;;;;;;17.03;100.00;100088.50;1712381;82;21034;-42
2021/08/19 01:28:55;;;;;;;9.38;7.90;;;;;;;17.03;100.00;100084.58;1724262;83;21110;-41
2021/08/19 01:31:24;;;;;;;10.00;8.33;;;;;;;17.00;100.00;100086.04;1719379;82;21107;-40
2021/08/19 01:33:51;;;;;;;9.60;7.33;;;;;;;17.00;100.00;100094.33;1709000;83;21117;-42
2021/08/19 01:36:18;;;;;;;17.90;8.68;;;;;;;16.98;100.00;100091.81;1727014;83;21568;-42
2021/08/19 01:38:49;;;;;;;13.43;8.65;;;;;;;16.95;100.00;100103.23;1723632;83;21507;-41
2021/08/19 01:41:15;;;;;;;11.15;8.68;;;;;;;16.93;100.00;100093.31;1714432;83;21033;-41
2021/08/19 01:43:46;;;;;;;12.03;9.73;;;;;;;16.94;100.00;100097.61;1724581;83;21086;-40
2021/08/19 01:46:14;;;;;;;15.45;10.20;;;;;;;16.94;100.00;100085.02;1725315;83;20954;-42
2021/08/19 01:48:42;;;;;;;20.97;9.38;;;;;;;16.94;100.00;100084.55;1726987;83;21026;-41
2021/08/19 01:51:10;;;;;;;22.00;9.85;;;;;;;16.95;100.00;100094.08;1724903;83;20966;-41
2021/08/19 01:53:38;;;;;;;19.60;9.58;;;;;;;16.97;100.00;100095.77;1710965;82;21234;-41
2021/08/19 01:56:05;;;;;;;23.55;10.10;;;;;;;16.98;100.00;100096.15;1695057;84;21003;-41
2021/08/19 01:58:33;;;;;;;18.10;8.88;;;;;;;16.97;100.00;100097.08;1717696;81;21010;-42
2021/08/19 02:01:01;;;;;;;10.98;7.90;;;;;;;16.96;100.00;100101.47;1756108;81;21034;-41
2021/08/19 02:03:28;;;;;;;16.23;9.05;;;;;;;16.94;100.00;100092.39;1757118;81;21237;-42
2021/08/19 02:05:54;;;;;;;12.80;8.93;;;;;;;16.92;100.00;100086.39;1753673;81;21077;-43
2021/08/19 02:08:22;;;;;;;13.45;8.35;;;;;;;16.92;100.00;100087.70;1755766;80;21053;-43
2021/08/19 02:10:49;;;;;;;11.78;8.20;;;;;;;16.92;100.00;100074.63;1755679;81;20998;-42
2021/08/19 02:13:15;;;;;;;9.63;7.37;;;;;;;16.91;100.00;100078.17;1755526;80;20951;-42
2021/08/19 02:15:42;;;;;;;12.28;7.78;;;;;;;16.89;100.00;100075.23;1748053;80;21651;-42
2021/08/19 02:18:09;;;;;;;9.88;7.53;;;;;;;16.87;100.00;100079.70;1743867;82;21713;-42
2021/08/19 02:20:35;;;;;;;11.48;7.85;;;;;;;16.81;100.00;100078.27;1745008;82;20990;-43
2021/08/19 02:23:03;;;;;;;18.32;8.70;;;;;;;16.81;100.00;100092.64;1747327;81;20924;-41
2021/08/19 02:25:30;;;;;;;15.48;8.13;;;;;;;16.78;100.00;100096.69;1746700;81;20999;-43
2021/08/19 02:27:56;;;;;;;9.50;7.95;;;;;;;16.78;100.00;100103.22;1747347;81;20928;-43
2021/08/19 02:30:24;;;;;;;13.35;7.67;;;;;;;16.78;100.00;100091.46;1746430;81;21164;-41
2021/08/19 02:32:57;;;;;;;10.53;7.72;;;;;;;16.76;100.00;100090.25;1757715;81;21009;-42
2021/08/19 02:35:26;;;;;;;13.83;7.75;;;;;;;16.76;100.00;100092.00;1747249;81;21011;-43
2021/08/19 02:37:54;;;;;;;14.47;7.40;;;;;;;16.76;100.00;100101.15;1762416;81;21487;-42
2021/08/19 02:40:22;;;;;;;13.28;7.53;;;;;;;16.74;100.00;100106.91;1755527;81;20920;-40
2021/08/19 02:42:50;;;;;;;12.15;7.53;;;;;;;16.74;100.00;100103.00;1746796;82;21154;-42
2021/08/19 02:45:16;;;;;;;11.75;7.60;;;;;;;16.75;100.00;100111.22;1744250;81;21010;-41
2021/08/19 02:47:43;;;;;;;11.45;7.17;;;;;;;16.75;100.00;100115.14;1747132;82;20992;-43
2021/08/19 02:50:10;;;;;;;12.37;7.35;;;;;;;16.74;100.00;100119.53;1740796;82;21026;-43
2021/08/19 02:52:37;;;;;;;10.90;6.90;;;;;;;16.73;100.00;100116.54;1692625;81;21525;-41
2021/08/19 02:55:05;;;;;;;9.63;6.97;;;;;;;16.75;100.00;100120.36;1746614;81;21072;-41
2021/08/19 02:57:33;;;;;;;7.28;6.47;;;;;;;16.74;100.00;100125.20;1705612;82;21135;-40
2021/08/19 02:59:59;;;;;;;11.80;7.80;;;;;;;16.77;100.00;100128.97;1750801;81;20943;-42
2021/08/19 03:02:26;;;;;;;10.68;6.45;;;;;;;16.76;100.00;100124.67;1732063;81;20947;-43
2021/08/19 03:04:52;;;;;;;6.95;6.17;;;;;;;16.75;100.00;100132.13;1755167;81;20985;-45
2021/08/19 03:07:19;;;;;;;11.28;6.40;;;;;;;16.77;100.00;100136.81;1747112;81;21056;-41
2021/08/19 03:09:45;;;;;;;8.95;6.83;;;;;;;16.77;100.00;100146.82;1723660;82;21007;-42
2021/08/19 03:12:12;;;;;;;10.15;7.00;;;;;;;16.77;100.00;100151.19;1753632;81;20908;-43
2021/08/19 03:14:39;;;;;;;25.90;7.90;;;;;;;16.80;100.00;100147.14;1759004;81;21021;-42
2021/08/19 03:17:07;;;;;;;10.03;8.40;;;;;;;16.81;100.00;100153.59;1763027;81;20963;-41
2021/08/19 03:19:35;;;;;;;10.40;9.18;;;;;;;16.83;100.00;100155.27;1736415;81;21096;-42
2021/08/19 03:22:03;;;;;;;12.00;10.05;;;;;;;16.84;100.00;100156.97;1764127;80;20962;-41
2021/08/19 03:24:30;;;;;;;17.87;10.48;;;;;;;16.84;100.00;100153.05;1743863;80;20939;-41
2021/08/19 03:26:57;;;;;;;14.25;11.57;;;;;;;16.86;100.00;100153.37;1763007;81;20957;-43
2021/08/19 03:29:24;;;;;;;13.95;12.35;;;;;;;16.90;100.00;100154.04;1762785;81;20970;-41
2021/08/19 03:31:50;;;;;;;16.02;13.40;;;;;;;16.87;100.00;100160.28;1775213;80;21213;-42
2021/08/19 03:34:18;;;;;;;22.30;13.08;;;;;;;16.88;100.00;100164.59;1769356;80;20966;-42
2021/08/19 03:36:46;;;;;;;22.48;13.50;;;;;;;16.88;100.00;100166.34;1759999;81;21077;-41
2021/08/19 03:39:14;;;;;;;20.68;16.42;;;;;;;16.88;100.00;100168.52;1755088;81;20979;-45
2021/08/19 03:41:41;;;;;;;25.48;17.87;;;;;;;16.91;100.00;100167.05;1755172;81;21026;-43
2021/08/19 03:44:09;;;;;;;24.00;16.55;;;;;;;16.89;100.00;100170.65;1739835;81;21018;-42
2021/08/19 03:46:38;;;;;;;36.98;19.30;;;;;;;16.90;100.00;100173.64;1732175;81;20991;-42
2021/08/19 03:49:07;;;;;;;31.00;21.00;;;;;;;16.90;100.00;100172.34;1754516;81;22236;-42
2021/08/19 03:51:34;;;;;;;36.93;23.27;;;;;;;16.88;100.00;100175.48;1755446;81;21634;-42
2021/08/19 03:54:03;;;;;;;32.73;21.82;;;;;;;16.87;100.00;100179.89;1742357;81;20999;-41
2021/08/19 03:56:31;;;;;;;37.58;21.82;;;;;;;16.84;100.00;100178.73;1747491;80;21108;-40
2021/08/19 03:58:57;;;;;;;34.43;22.15;;;;;;;16.84;100.00;100182.66;1763184;80;20934;-42
2021/08/19 04:01:24;;;;;;;36.63;23.62;;;;;;;16.86;100.00;100186.04;1750745;80;20938;-44
2021/08/19 04:03:51;;;;;;;36.60;23.77;;;;;;;16.87;100.00;100185.12;1767591;80;20966;-41
2021/08/19 04:06:18;;;;;;;43.50;26.77;;;;;;;16.85;100.00;100181.73;1735314;82;20949;-41
2021/08/19 04:08:45;;;;;;;43.52;25.20;;;;;;;16.86;100.00;100183.88;1741117;82;21121;-43
2021/08/19 04:11:11;;;;;;;43.28;25.52;;;;;;;16.86;100.00;100186.48;1741154;81;21019;-43
2021/08/19 04:13:39;;;;;;;38.73;24.50;;;;;;;16.89;100.00;100179.80;1716414;81;20956;-42
2021/08/19 04:16:07;;;;;;;41.65;25.30;;;;;;;16.91;100.00;100178.81;1734870;81;20998;-43
2021/08/19 04:18:35;;;;;;;41.28;24.70;;;;;;;16.93;100.00;100181.36;1778664;80;20954;-41
2021/08/19 04:21:02;;;;;;;38.35;24.47;;;;;;;16.97;100.00;100181.59;1748682;81;21131;-43
2021/08/19 04:23:30;;;;;;;35.43;23.75;;;;;;;17.02;100.00;100183.98;1751546;81;21015;-41
2021/08/19 04:25:58;;;;;;;37.10;24.75;;;;;;;17.03;100.00;100183.06;1750224;81;20963;-41
2021/08/19 04:28:24;;;;;;;40.30;24.55;;;;;;;17.05;100.00;100185.14;1732831;82;21008;-43
2021/08/19 04:30:51;;;;;;;45.03;23.67;;;;;;;17.07;100.00;100188.55;1746100;81;21477;-43
2021/08/19 04:33:17;;;;;;;37.05;24.37;;;;;;;17.09;100.00;100184.92;1751870;81;21551;-43
2021/08/19 04:35:43;;;;;;;43.92;24.43;;;;;;;17.14;100.00;100183.39;1751214;81;20978;-42
2021/08/19 04:38:10;;;;;;;39.08;24.55;;;;;;;17.17;100.00;100187.59;1736928;82;21064;-42
2021/08/19 04:40:36;;;;;;;35.95;23.50;;;;;;;17.23;100.00;100190.77;1723930;81;20972;-41
2021/08/19 04:43:03;;;;;;;38.48;23.60;;;;;;;17.22;100.00;100194.30;1744343;82;20936;-40
2021/08/19 04:45:29;;;;;;;31.20;21.95;;;;;;;17.18;100.00;100192.77;1744785;81;21119;-40
2021/08/19 04:47:56;;;;;;;33.50;23.42;;;;;;;17.22;100.00;100195.61;1742222;81;21028;-40
2021/08/19 04:50:22;;;;;;;35.43;21.12;;;;;;;17.28;100.00;100196.22;1721380;81;20991;-41
2021/08/19 04:52:49;;;;;;;28.15;21.40;;;;;;;17.35;100.00;100191.91;1740664;81;21022;-40
2021/08/19 04:55:15;;;;;;;29.67;20.70;;;;;;;17.41;100.00;100195.98;1751464;81;20983;-42
2021/08/19 04:57:42;;;;;;;27.98;20.68;;;;;;;17.48;100.00;100197.36;1749637;81;21159;-42
2021/08/19 05:00:10;;;;;;;24.80;19.55;;;;;;;17.57;100.00;100194.73;1738186;81;20944;-41
2021/08/19 05:02:37;;;;;;;29.52;18.85;;;;;;;17.66;100.00;100196.02;1733662;82;21524;-42
2021/08/19 05:05:48;;;;;;;24.92;19.15;;;;;;;17.72;100.00;100200.93;1813883;79;22612;-40
2021/08/19 05:08:14;;;;;;;27.35;21.07;;;;;;;17.71;100.00;100199.24;1782756;80;21046;-40
2021/08/19 05:10:40;;;;;;;23.02;19.75;;;;;;;17.72;100.00;100190.46;1733972;80;22202;-40
2021/08/19 05:13:09;;;;;;;25.37;19.73;;;;;;;17.77;100.00;100181.06;1781328;80;21003;-40
2021/08/19 05:15:36;;;;;;;24.57;18.62;;;;;;;17.86;100.00;100187.59;1778084;80;20951;-41
2021/08/19 05:18:04;;;;;;;26.37;19.98;;;;;;;17.88;100.00;100192.28;1782904;80;20987;-42
2021/08/19 05:20:32;;;;;;;22.10;18.02;;;;;;;17.87;100.00;100193.21;1783015;79;20964;-42
2021/08/19 05:22:58;;;;;;;25.50;18.60;;;;;;;17.88;100.00;100189.66;1786071;80;21720;-42
2021/08/19 05:25:27;;;;;;;25.05;17.75;;;;;;;17.95;100.00;100186.64;1784249;80;20924;-43
2021/08/19 05:27:53;;;;;;;22.30;17.07;;;;;;;18.03;100.00;100186.72;1756068;80;20959;-41
2021/08/19 05:30:20;;;;;;;21.82;17.02;;;;;;;18.12;100.00;100184.89;1778379;80;20967;-42
2021/08/19 05:32:47;;;;;;;17.45;15.03;;;;;;;18.22;100.00;100180.00;1782746;80;21007;-41
2021/08/19 05:35:13;;;;;;;19.00;14.10;;;;;;;18.27;100.00;100177.97;1753925;80;21218;-43
2021/08/19 05:37:40;;;;;;;16.90;13.22;;;;;;;18.36;100.00;100173.55;1787749;80;20892;-41
2021/08/19 05:40:09;;;;;;;16.35;11.60;;;;;;;18.48;100.00;100167.23;1787738;80;20975;-42
2021/08/19 05:42:35;;;;;;;13.75;10.23;;;;;;;18.56;100.00;100167.63;1757552;80;21552;-40
2021/08/19 05:45:01;;;;;;;11.48;9.68;;;;;;;18.64;100.00;100164.13;1788031;80;21130;-39
2021/08/19 05:47:29;;;;;;;16.32;8.78;;;;;;;18.64;100.00;100169.83;1764863;80;21902;-39
2021/08/19 05:49:56;;;;;;;13.58;9.25;;;;;;;18.72;100.00;100172.02;1759279;81;21249;-40
2021/08/19 05:52:22;;;;;;;10.80;7.28;;;;;;;18.74;100.00;100168.39;1736619;81;20975;-42
2021/08/19 05:54:49;;;;;;;11.05;7.47;;;;;;;18.67;100.00;100164.41;1713476;81;21544;-41
2021/08/19 05:57:16;;;;;;;12.90;7.67;;;;;;;18.52;100.00;100172.22;1729436;83;21476;-40
2021/08/19 05:59:43;;;;;;;11.55;7.30;;;;;;;18.49;100.00;100171.54;1729174;83;21947;-41
2021/08/19 06:02:10;;;;;;;9.35;7.30;;;;;;;18.45;100.00;100176.13;1734953;81;21445;-41
2021/08/19 06:04:37;;;;;;;8.00;6.45;;;;;;;18.42;100.00;100171.03;1733316;81;21003;-40
2021/08/19 06:07:04;;;;;;;8.75;6.22;;;;;;;18.45;100.00;100182.67;1718811;83;20948;-41
2021/08/19 06:09:32;;;;;;;8.05;6.42;;;;;;;18.56;100.00;100180.73;1727664;82;20963;-42
2021/08/19 06:12:00;;;;;;;7.03;6.37;;;;;;;18.60;100.00;100193.21;1736846;82;21126;-41
2021/08/19 06:14:27;;;;;;;17.48;6.60;;;;;;;18.53;100.00;100186.16;1723869;82;21001;-41
2021/08/19 06:16:53;;;;;;;8.23;6.62;;;;;;;18.37;100.00;100189.65;1747275;82;21109;-41
2021/08/19 06:19:21;;;;;;;8.20;6.70;;;;;;;18.36;100.00;100190.58;1739010;82;21478;-41
2021/08/19 06:21:47;;;;;;;11.68;6.72;;;;;;;18.45;100.00;100186.61;1719693;82;21528;-41
2021/08/19 06:24:15;;;;;;;6.70;5.95;;;;;;;18.56;100.00;100191.70;1742712;82;21035;-40
2021/08/19 06:26:42;;;;;;;10.43;6.25;;;;;;;18.64;100.00;100181.17;1731920;82;21044;-41
2021/08/19 06:29:08;;;;;;;6.40;5.80;;;;;;;18.78;100.00;100185.63;1733346;82;20977;-41
2021/08/19 06:31:36;;;;;;;9.23;6.17;;;;;;;18.84;100.00;100190.13;1732972;82;20939;-41
2021/08/19 06:34:03;;;;;;;7.28;6.50;;;;;;;18.84;100.00;100187.51;1732133;82;21038;-40
2021/08/19 06:36:29;;;;;;;9.48;6.15;;;;;;;18.89;100.00;100188.94;1693144;83;21214;-40
2021/08/19 06:38:56;;;;;;;8.65;6.03;;;;;;;18.91;100.00;100183.14;1732608;82;20954;-42
2021/08/19 06:41:24;;;;;;;10.20;6.28;;;;;;;18.82;100.00;100177.13;1739476;82;20995;-40
2021/08/19 06:43:51;;;;;;;6.67;6.08;;;;;;;18.85;100.00;100180.88;1703814;82;21529;-40
2021/08/19 06:46:18;;;;;;;8.35;6.45;;;;;;;18.92;100.00;100182.20;1691788;83;20967;-39
2021/08/19 06:48:44;;;;;;;9.85;6.30;;;;;;;18.87;100.00;100173.77;1725322;82;21133;-41
2021/08/19 06:51:10;;;;;;;11.53;6.20;;;;;;;18.92;100.00;100177.41;1747293;81;21556;-40
2021/08/19 06:53:37;;;;;;;6.70;6.10;;;;;;;19.01;100.00;100176.93;1745235;82;20958;-39
2021/08/19 06:56:04;;;;;;;12.37;5.83;;;;;;;19.08;100.00;100178.73;1733584;82;21015;-39
2021/08/19 06:58:31;;;;;;;7.80;5.58;;;;;;;19.16;100.00;100182.19;1683512;85;21008;-42
2021/08/19 07:00:57;;;;;;;7.70;6.22;;;;;;;19.23;100.00;100183.54;1671487;85;21212;-42
2021/08/19 07:03:26;;;;;;;8.65;5.47;;;;;;;19.34;100.00;100182.42;1648439;85;21082;-43
2021/08/19 07:05:52;;;;;;;8.50;5.85;;;;;;;19.49;100.00;100178.52;1640164;85;21063;-41
2021/08/19 07:08:19;;;;;;;6.53;5.60;;;;;;;19.61;100.00;100178.24;1679925;85;21000;-42
2021/08/19 07:10:46;;;;;;;9.23;5.83;;;;;;;19.75;100.00;100180.02;1675029;85;21032;-41
2021/08/19 07:13:12;;;;;;;6.08;5.47;;;;;;;19.81;100.00;100183.09;1659031;85;21139;-43
2021/08/19 07:15:41;;;;;;;6.78;5.20;;;;;;;19.93;100.00;100176.75;1667241;85;21128;-42
2021/08/19 07:18:09;;;;;;;11.43;6.10;;;;;;;20.07;100.00;100175.40;1658251;85;20996;-43
2021/08/19 07:20:36;;;;;;;8.95;5.80;;;;;;;20.33;100.00;100164.19;1675230;85;21287;-41
2021/08/19 07:23:03;;;;;;;9.85;6.30;;;;;;;20.52;100.00;100162.52;1659749;85;21012;-41
2021/08/19 07:25:30;;;;;;;6.75;5.78;;;;;;;20.77;100.00;100167.48;1657148;85;21131;-41
2021/08/19 07:27:56;;;;;;;6.50;5.50;;;;;;;20.93;100.00;100157.68;1658365;85;21554;-41
2021/08/19 07:30:23;;;;;;;10.63;5.95;;;;;;;21.01;96.48;100155.00;1664399;85;21096;-41
2021/08/19 07:32:49;;;;;;;8.20;5.90;;;;;;;21.29;94.73;100155.30;1676621;85;21041;-43
2021/08/19 07:35:16;;;;;;;6.53;5.87;;;;;;;21.47;90.28;100163.71;1654258;85;21029;-41
2021/08/19 07:37:50;;;;;;;5.53;5.03;;;;;;;21.64;89.32;100166.98;1679681;85;21124;-43
2021/08/19 07:40:18;;;;;;;9.57;5.77;;;;;;;21.84;90.05;100168.70;1675731;85;20981;-40
2021/08/19 07:42:45;;;;;;;11.43;4.90;;;;;;;22.00;88.55;100165.34;1654507;85;21028;-41
2021/08/19 07:45:13;;;;;;;5.35;4.72;;;;;;;22.01;85.37;100170.98;1675343;85;21052;-39
2021/08/19 07:47:39;;;;;;;5.83;5.12;;;;;;;21.92;83.97;100176.92;1681787;85;20989;-40
2021/08/19 07:50:07;;;;;;;6.72;5.15;;;;;;;21.88;80.71;100180.73;1681126;85;21152;-40
2021/08/19 07:52:34;;;;;;;5.85;5.20;;;;;;;21.67;82.30;100193.13;1635207;85;21031;-39
2021/08/19 07:55:00;;;;;;;5.70;5.17;;;;;;;21.51;82.40;100190.69;1654914;85;21095;-40
2021/08/19 07:57:27;;;;;;;6.15;5.37;;;;;;;21.28;81.87;100190.92;1661584;85;21109;-40
2021/08/19 07:59:53;;;;;;;7.12;5.03;;;;;;;21.17;83.33;100189.87;1681623;84;21063;-40
2021/08/19 08:02:20;;;;;;;6.15;5.45;;;;;;;21.06;84.25;100187.09;1659261;85;21131;-42
2021/08/19 08:04:47;;;;;;;6.47;5.35;;;;;;;20.93;85.05;100186.62;1664527;84;20933;-42
2021/08/19 08:07:13;;;;;;;7.50;5.10;;;;;;;20.83;84.91;100189.47;1659169;86;21004;-43
2021/08/19 08:09:39;;;;;;;8.10;5.33;;;;;;;20.63;85.68;100194.69;1659156;86;21008;-42
2021/08/19 08:12:09;;;;;;;5.28;4.85;;;;;;;20.51;87.01;100199.81;1660921;85;20937;-43
2021/08/19 08:14:35;;;;;;;5.62;5.12;;;;;;;20.48;87.56;100192.59;1662718;85;21131;-41
2021/08/19 08:17:02;;;;;;;6.92;5.00;;;;;;;20.49;87.90;100194.27;1662281;85;21629;-41
2021/08/19 08:19:30;;;;;;;5.67;5.10;;;;;;;20.40;88.35;100197.02;1660812;85;21731;-43
2021/08/19 08:21:57;;;;;;;10.30;4.97;;;;;;;20.34;88.47;100196.95;1659223;86;22237;-42
2021/08/19 08:24:23;;;;;;;6.87;4.70;;;;;;;20.31;89.27;100193.19;1678382;85;21019;-42
2021/08/19 08:26:50;;;;;;;5.33;4.83;;;;;;;20.32;90.18;100183.53;1687122;85;21142;-43
2021/08/19 08:29:19;;;;;;;6.22;5.47;;;;;;;20.30;89.79;100195.92;1687073;85;20937;-41
2021/08/19 08:31:45;;;;;;;5.60;5.10;;;;;;;20.24;90.23;100201.09;1687117;85;21024;-43
2021/08/19 08:34:12;;;;;;;7.72;5.25;;;;;;;20.20;90.52;100199.11;1680978;85;21064;-43
2021/08/19 08:36:42;;;;;;;4.97;4.50;;;;;;;20.18;91.16;100202.80;1668531;85;21000;-41
